sensor_id;sensor_type;location;lat;lon;timestamp;temperature;humidity
13856;DHT22;6998;53.608;9.958;2023-07-28T00:00:39;16.90;99.90
13856;DHT22;6998;53.608;9.958;2023-07-28T00:03:06;17.00;99.90
13856;DHT22;6998;53.608;9.958;2023-07-28T00:05:32;16.90;99.90
13856;DHT22;6998;53.608;9.958;2023-07-28T00:07:59;16.90;99.90
13856;DHT22;6998;53.608;9.958;2023-07-28T00:10:26;16.90;99.90
13856;DHT22;6998;53.608;9.958;2023-07-28T00:12:53;16.90;99.90
13856;DHT22;6998;53.608;9.958;2023-07-28T00:15:19;17.00;99.90
13856;DHT22;6998;53.608;9.958;2023-07-28T00:17:47;16.90;99.90
13856;DHT22;6998;53.608;9.958;2023-07-28T00:20:14;16.90;99.90
13856;DHT22;6998;53.608;9.958;2023-07-28T00:22:41;16.90;99.90
13856;DHT22;6998;53.608;9.958;2023-07-28T00:25:08;16.90;99.90
13856;DHT22;6998;53.608;9.958;2023-07-28T00:27:35;17.00;99.90
13856;DHT22;6998;53.608;9.958;2023-07-28T00:30:01;16.90;99.90
13856;DHT22;6998;53.608;9.958;2023-07-28T00:32:28;16.90;99.90
13856;DHT22;6998;53.608;9.958;2023-07-28T00:34:56;16.90;99.90
13856;DHT22;6998;53.608;9.958;2023-07-28T00:37:23;16.90;99.90
13856;DHT22;6998;53.608;9.958;2023-07-28T00:39:50;16.90;99.90
13856;DHT22;6998;53.608;9.958;2023-07-28T00:42:17;16.90;99.90
13856;DHT22;6998;53.608;9.958;2023-07-28T00:44:43;16.90;99.90
13856;DHT22;6998;53.608;9.958;2023-07-28T00:47:10;16.90;99.90
13856;DHT22;6998;53.608;9.958;2023-07-28T00:49:38;16.90;99.90
13856;DHT22;6998;53.608;9.958;2023-07-28T00:52:08;16.90;99.90
13856;DHT22;6998;53.608;9.958;2023-07-28T00:54:36;16.90;99.90
13856;DHT22;6998;53.608;9.958;2023-07-28T00:57:03;16.90;99.90
13856;DHT22;6998;53.608;9.958;2023-07-28T00:59:31;17.00;99.90
13856;DHT22;6998;53.608;9.958;2023-07-28T01:01:58;16.90;99.90
13856;DHT22;6998;53.608;9.958;2023-07-28T01:04:24;16.90;99.90
13856;DHT22;6998;53.608;9.958;2023-07-28T01:06:57;16.80;99.90
13856;DHT22;6998;53.608;9.958;2023-07-28T01:09:32;16.80;99.90
13856;DHT22;6998;53.608;9.958;2023-07-28T01:12:01;16.80;99.90
13856;DHT22;6998;53.608;9.958;2023-07-28T01:14:33;16.90;99.90
13856;DHT22;6998;53.608;9.958;2023-07-28T01:17:00;16.90;99.90
13856;DHT22;6998;53.608;9.958;2023-07-28T01:19:27;16.90;99.90
13856;DHT22;6998;53.608;9.958;2023-07-28T01:22:01;16.90;99.90
13856;DHT22;6998;53.608;9.958;2023-07-28T01:24:41;16.90;99.90
13856;DHT22;6998;53.608;9.958;2023-07-28T01:27:10;17.00;99.90
13856;DHT22;6998;53.608;9.958;2023-07-28T01:29:37;17.00;99.90
13856;DHT22;6998;53.608;9.958;2023-07-28T01:32:05;17.00;99.90
13856;DHT22;6998;53.608;9.958;2023-07-28T01:34:31;16.90;99.90
13856;DHT22;6998;53.608;9.958;2023-07-28T01:36:58;16.80;99.90
13856;DHT22;6998;53.608;9.958;2023-07-28T01:39:25;16.80;99.90
13856;DHT22;6998;53.608;9.958;2023-07-28T01:41:52;16.80;99.90
13856;DHT22;6998;53.608;9.958;2023-07-28T01:44:20;16.90;99.90
13856;DHT22;6998;53.608;9.958;2023-07-28T01:46:46;16.90;99.90
13856;DHT22;6998;53.608;9.958;2023-07-28T01:49:13;16.90;99.90
13856;DHT22;6998;53.608;9.958;2023-07-28T01:51:40;16.90;99.90
13856;DHT22;6998;53.608;9.958;2023-07-28T01:54:06;16.90;99.90
13856;DHT22;6998;53.608;9.958;2023-07-28T01:56:33;16.90;99.90
13856;DHT22;6998;53.608;9.958;2023-07-28T01:59:00;16.90;99.90
13856;DHT22;6998;53.608;9.958;2023-07-28T02:01:28;16.90;99.90
13856;DHT22;6998;53.608;9.958;2023-07-28T02:03:54;16.80;99.90
13856;DHT22;6998;53.608;9.958;2023-07-28T02:06:21;16.70;99.90
13856;DHT22;6998;53.608;9.958;2023-07-28T02:08:48;16.70;99.90
13856;DHT22;6998;53.608;9.958;2023-07-28T02:11:14;16.80;99.90
13856;DHT22;6998;53.608;9.958;2023-07-28T02:13:41;16.80;99.90
13856;DHT22;6998;53.608;9.958;2023-07-28T02:16:08;16.80;99.90
13856;DHT22;6998;53.608;9.958;2023-07-28T02:18:36;16.80;99.90
13856;DHT22;6998;53.608;9.958;2023-07-28T02:21:02;16.90;99.90
13856;DHT22;6998;53.608;9.958;2023-07-28T02:23:29;16.90;99.90
13856;DHT22;6998;53.608;9.958;2023-07-28T02:25:56;16.90;99.90
13856;DHT22;6998;53.608;9.958;2023-07-28T02:28:23;16.90;99.90
13856;DHT22;6998;53.608;9.958;2023-07-28T02:30:49;16.90;99.90
13856;DHT22;6998;53.608;9.958;2023-07-28T02:33:16;16.80;99.90
13856;DHT22;6998;53.608;9.958;2023-07-28T02:35:44;16.90;99.90
13856;DHT22;6998;53.608;9.958;2023-07-28T02:38:11;16.80;99.90
13856;DHT22;6998;53.608;9.958;2023-07-28T02:40:37;16.90;99.90
13856;DHT22;6998;53.608;9.958;2023-07-28T02:43:04;16.90;99.90
13856;DHT22;6998;53.608;9.958;2023-07-28T02:45:31;17.00;99.90
13856;DHT22;6998;53.608;9.958;2023-07-28T02:48:00;16.90;99.90
13856;DHT22;6998;53.608;9.958;2023-07-28T02:50:26;17.00;99.90
13856;DHT22;6998;53.608;9.958;2023-07-28T02:52:54;17.00;99.90
13856;DHT22;6998;53.608;9.958;2023-07-28T02:55:21;16.90;99.90
13856;DHT22;6998;53.608;9.958;2023-07-28T02:57:48;16.90;99.90
13856;DHT22;6998;53.608;9.958;2023-07-28T03:00:15;16.80;99.90
13856;DHT22;6998;53.608;9.958;2023-07-28T03:02:41;16.90;99.90
13856;DHT22;6998;53.608;9.958;2023-07-28T03:05:08;16.80;99.90
13856;DHT22;6998;53.608;9.958;2023-07-28T03:07:35;16.80;99.90
13856;DHT22;6998;53.608;9.958;2023-07-28T03:10:03;16.80;99.90
13856;DHT22;6998;53.608;9.958;2023-07-28T03:12:30;16.80;99.90
13856;DHT22;6998;53.608;9.958;2023-07-28T03:14:57;16.90;99.90
13856;DHT22;6998;53.608;9.958;2023-07-28T03:17:23;16.90;99.90
13856;DHT22;6998;53.608;9.958;2023-07-28T03:19:50;16.90;99.90
13856;DHT22;6998;53.608;9.958;2023-07-28T03:22:17;16.80;99.90
13856;DHT22;6998;53.608;9.958;2023-07-28T03:24:43;16.80;99.90
13856;DHT22;6998;53.608;9.958;2023-07-28T03:27:13;16.80;99.90
13856;DHT22;6998;53.608;9.958;2023-07-28T03:29:39;16.80;99.90
13856;DHT22;6998;53.608;9.958;2023-07-28T03:32:06;16.80;99.90
13856;DHT22;6998;53.608;9.958;2023-07-28T03:34:33;16.80;99.90
13856;DHT22;6998;53.608;9.958;2023-07-28T03:37:00;16.80;99.90
13856;DHT22;6998;53.608;9.958;2023-07-28T03:39:26;16.80;99.90
13856;DHT22;6998;53.608;9.958;2023-07-28T03:41:53;16.80;99.90
13856;DHT22;6998;53.608;9.958;2023-07-28T03:44:21;16.80;99.90
13856;DHT22;6998;53.608;9.958;2023-07-28T03:46:48;16.80;99.90
13856;DHT22;6998;53.608;9.958;2023-07-28T03:49:15;16.80;99.90
13856;DHT22;6998;53.608;9.958;2023-07-28T03:51:41;16.80;99.90
13856;DHT22;6998;53.608;9.958;2023-07-28T03:54:08;16.80;99.90
13856;DHT22;6998;53.608;9.958;2023-07-28T03:56:35;16.80;99.90
13856;DHT22;6998;53.608;9.958;2023-07-28T03:59:01;16.80;99.90
13856;DHT22;6998;53.608;9.958;2023-07-28T04:01:30;16.70;99.90
13856;DHT22;6998;53.608;9.958;2023-07-28T04:03:56;16.70;99.90
13856;DHT22;6998;53.608;9.958;2023-07-28T04:06:39;16.70;99.90
13856;DHT22;6998;53.608;9.958;2023-07-28T04:09:06;16.80;99.90
13856;DHT22;6998;53.608;9.958;2023-07-28T04:11:33;16.70;99.90
13856;DHT22;6998;53.608;9.958;2023-07-28T04:14:00;16.80;99.90
13856;DHT22;6998;53.608;9.958;2023-07-28T04:16:26;16.80;99.90
13856;DHT22;6998;53.608;9.958;2023-07-28T04:18:54;16.80;99.90
13856;DHT22;6998;53.608;9.958;2023-07-28T04:21:21;16.90;99.90
13856;DHT22;6998;53.608;9.958;2023-07-28T04:23:48;16.90;99.90
13856;DHT22;6998;53.608;9.958;2023-07-28T04:26:15;16.90;99.90
13856;DHT22;6998;53.608;9.958;2023-07-28T04:28:42;17.00;99.90
13856;DHT22;6998;53.608;9.958;2023-07-28T04:31:10;17.00;99.90
13856;DHT22;6998;53.608;9.958;2023-07-28T04:33:36;17.00;99.90
13856;DHT22;6998;53.608;9.958;2023-07-28T04:36:06;16.90;99.90
13856;DHT22;6998;53.608;9.958;2023-07-28T04:38:33;16.90;99.90
13856;DHT22;6998;53.608;9.958;2023-07-28T04:41:00;17.00;99.90
13856;DHT22;6998;53.608;9.958;2023-07-28T04:43:26;17.00;99.90
13856;DHT22;6998;53.608;9.958;2023-07-28T04:45:53;17.00;99.90
13856;DHT22;6998;53.608;9.958;2023-07-28T04:48:21;17.10;99.90
13856;DHT22;6998;53.608;9.958;2023-07-28T04:50:47;17.10;99.90
13856;DHT22;6998;53.608;9.958;2023-07-28T04:53:15;17.20;99.90
13856;DHT22;6998;53.608;9.958;2023-07-28T04:55:42;17.20;99.90
13856;DHT22;6998;53.608;9.958;2023-07-28T04:58:09;17.20;99.90
13856;DHT22;6998;53.608;9.958;2023-07-28T05:00:35;17.30;99.90
13856;DHT22;6998;53.608;9.958;2023-07-28T05:03:02;17.30;99.90
13856;DHT22;6998;53.608;9.958;2023-07-28T05:05:29;17.30;99.90
13856;DHT22;6998;53.608;9.958;2023-07-28T05:07:56;17.40;99.90
13856;DHT22;6998;53.608;9.958;2023-07-28T05:10:24;17.40;99.90
13856;DHT22;6998;53.608;9.958;2023-07-28T05:12:51;17.40;99.90
13856;DHT22;6998;53.608;9.958;2023-07-28T05:15:19;17.40;99.90
13856;DHT22;6998;53.608;9.958;2023-07-28T05:17:46;17.50;99.90
13856;DHT22;6998;53.608;9.958;2023-07-28T05:20:12;17.40;99.90
13856;DHT22;6998;53.608;9.958;2023-07-28T05:22:39;17.50;99.90
13856;DHT22;6998;53.608;9.958;2023-07-28T05:25:06;17.50;99.90
13856;DHT22;6998;53.608;9.958;2023-07-28T05:27:35;17.60;99.90
13856;DHT22;6998;53.608;9.958;2023-07-28T05:30:01;17.70;99.90
13856;DHT22;6998;53.608;9.958;2023-07-28T05:32:28;17.80;99.90
13856;DHT22;6998;53.608;9.958;2023-07-28T05:34:56;17.90;99.90
13856;DHT22;6998;53.608;9.958;2023-07-28T05:37:23;18.00;99.90
13856;DHT22;6998;53.608;9.958;2023-07-28T05:39:50;18.00;99.90
13856;DHT22;6998;53.608;9.958;2023-07-28T05:42:17;18.10;99.90
13856;DHT22;6998;53.608;9.958;2023-07-28T05:44:45;18.20;99.90
13856;DHT22;6998;53.608;9.958;2023-07-28T05:47:11;18.30;99.90
13856;DHT22;6998;53.608;9.958;2023-07-28T05:49:38;18.20;99.90
13856;DHT22;6998;53.608;9.958;2023-07-28T05:52:05;18.20;99.90
13856;DHT22;6998;53.608;9.958;2023-07-28T05:54:32;18.30;99.90
13856;DHT22;6998;53.608;9.958;2023-07-28T05:56:59;18.30;99.90
13856;DHT22;6998;53.608;9.958;2023-07-28T05:59:25;18.30;99.90
13856;DHT22;6998;53.608;9.958;2023-07-28T06:01:54;18.30;99.90
13856;DHT22;6998;53.608;9.958;2023-07-28T06:04:20;18.50;99.90
13856;DHT22;6998;53.608;9.958;2023-07-28T06:06:47;18.60;99.90
13856;DHT22;6998;53.608;9.958;2023-07-28T06:09:14;18.60;99.90
13856;DHT22;6998;53.608;9.958;2023-07-28T06:11:41;18.60;99.90
13856;DHT22;6998;53.608;9.958;2023-07-28T06:14:07;18.50;99.90
13856;DHT22;6998;53.608;9.958;2023-07-28T06:16:34;18.60;99.90
13856;DHT22;6998;53.608;9.958;2023-07-28T06:19:02;18.50;99.90
13856;DHT22;6998;53.608;9.958;2023-07-28T06:21:29;18.50;99.90
13856;DHT22;6998;53.608;9.958;2023-07-28T06:23:56;18.70;99.90
13856;DHT22;6998;53.608;9.958;2023-07-28T06:26:23;18.70;99.90
13856;DHT22;6998;53.608;9.958;2023-07-28T06:28:50;18.80;99.90
13856;DHT22;6998;53.608;9.958;2023-07-28T06:31:17;18.80;99.90
13856;DHT22;6998;53.608;9.958;2023-07-28T06:33:43;18.90;99.90
13856;DHT22;6998;53.608;9.958;2023-07-28T06:36:11;19.00;99.90
13856;DHT22;6998;53.608;9.958;2023-07-28T06:38:38;18.90;99.90
13856;DHT22;6998;53.608;9.958;2023-07-28T06:41:05;18.90;99.90
13856;DHT22;6998;53.608;9.958;2023-07-28T06:43:31;18.90;99.90
13856;DHT22;6998;53.608;9.958;2023-07-28T06:45:58;18.90;99.90
13856;DHT22;6998;53.608;9.958;2023-07-28T06:48:25;18.90;99.90
13856;DHT22;6998;53.608;9.958;2023-07-28T06:50:52;19.00;99.90
13856;DHT22;6998;53.608;9.958;2023-07-28T06:53:20;19.00;99.90
13856;DHT22;6998;53.608;9.958;2023-07-28T06:55:47;19.00;99.90
13856;DHT22;6998;53.608;9.958;2023-07-28T06:58:14;19.00;99.90
13856;DHT22;6998;53.608;9.958;2023-07-28T07:00:40;19.10;99.90
13856;DHT22;6998;53.608;9.958;2023-07-28T07:03:09;19.30;99.90
13856;DHT22;6998;53.608;9.958;2023-07-28T07:05:36;19.60;99.90
13856;DHT22;6998;53.608;9.958;2023-07-28T07:08:03;19.80;99.90
13856;DHT22;6998;53.608;9.958;2023-07-28T07:10:31;19.90;99.90
13856;DHT22;6998;53.608;9.958;2023-07-28T07:12:58;20.10;99.90
13856;DHT22;6998;53.608;9.958;2023-07-28T07:15:25;20.10;99.90
13856;DHT22;6998;53.608;9.958;2023-07-28T07:17:51;20.10;99.90
13856;DHT22;6998;53.608;9.958;2023-07-28T07:20:18;20.00;99.90
13856;DHT22;6998;53.608;9.958;2023-07-28T07:22:45;20.20;99.90
13856;DHT22;6998;53.608;9.958;2023-07-28T07:25:12;20.30;99.90
13856;DHT22;6998;53.608;9.958;2023-07-28T07:27:40;20.50;99.90
13856;DHT22;6998;53.608;9.958;2023-07-28T07:30:08;20.60;99.90
13856;DHT22;6998;53.608;9.958;2023-07-28T07:32:35;20.60;99.90
13856;DHT22;6998;53.608;9.958;2023-07-28T07:35:02;20.70;99.90
13856;DHT22;6998;53.608;9.958;2023-07-28T07:37:29;20.70;99.90
13856;DHT22;6998;53.608;9.958;2023-07-28T07:39:57;20.80;99.90
13856;DHT22;6998;53.608;9.958;2023-07-28T07:42:25;20.80;99.90
13856;DHT22;6998;53.608;9.958;2023-07-28T07:44:53;20.80;99.90
13856;DHT22;6998;53.608;9.958;2023-07-28T07:47:20;20.90;99.90
13856;DHT22;6998;53.608;9.958;2023-07-28T07:49:47;20.90;99.90
13856;DHT22;6998;53.608;9.958;2023-07-28T07:52:13;20.90;99.90
13856;DHT22;6998;53.608;9.958;2023-07-28T07:54:40;21.00;99.90
13856;DHT22;6998;53.608;9.958;2023-07-28T07:57:07;21.00;99.90
13856;DHT22;6998;53.608;9.958;2023-07-28T07:59:33;21.20;99.90
13856;DHT22;6998;53.608;9.958;2023-07-28T08:02:02;21.30;99.90
13856;DHT22;6998;53.608;9.958;2023-07-28T08:04:29;21.30;99.90
13856;DHT22;6998;53.608;9.958;2023-07-28T08:06:57;21.40;99.90
13856;DHT22;6998;53.608;9.958;2023-07-28T08:09:23;21.40;99.90
13856;DHT22;6998;53.608;9.958;2023-07-28T08:11:50;21.30;99.90
13856;DHT22;6998;53.608;9.958;2023-07-28T08:14:18;21.30;99.90
13856;DHT22;6998;53.608;9.958;2023-07-28T08:16:45;21.20;99.90
13856;DHT22;6998;53.608;9.958;2023-07-28T08:19:13;21.30;99.90
13856;DHT22;6998;53.608;9.958;2023-07-28T08:21:40;21.20;99.90
13856;DHT22;6998;53.608;9.958;2023-07-28T08:24:07;21.10;99.90
13856;DHT22;6998;53.608;9.958;2023-07-28T08:26:34;21.20;99.90
13856;DHT22;6998;53.608;9.958;2023-07-28T08:29:01;21.10;99.90
13856;DHT22;6998;53.608;9.958;2023-07-28T08:31:27;21.00;99.90
13856;DHT22;6998;53.608;9.958;2023-07-28T08:33:54;21.00;99.90
13856;DHT22;6998;53.608;9.958;2023-07-28T08:36:22;20.90;99.90
13856;DHT22;6998;53.608;9.958;2023-07-28T08:38:49;20.80;99.90
13856;DHT22;6998;53.608;9.958;2023-07-28T08:41:15;20.80;99.90
13856;DHT22;6998;53.608;9.958;2023-07-28T08:43:42;20.90;99.90
13856;DHT22;6998;53.608;9.958;2023-07-28T08:46:09;20.80;99.90
13856;DHT22;6998;53.608;9.958;2023-07-28T08:48:36;20.90;99.90
13856;DHT22;6998;53.608;9.958;2023-07-28T08:51:03;20.90;99.90
13856;DHT22;6998;53.608;9.958;2023-07-28T08:53:32;20.90;99.90
13856;DHT22;6998;53.608;9.958;2023-07-28T08:55:58;20.90;99.90
13856;DHT22;6998;53.608;9.958;2023-07-28T08:58:25;20.80;99.90
13856;DHT22;6998;53.608;9.958;2023-07-28T09:00:52;21.00;99.90
13856;DHT22;6998;53.608;9.958;2023-07-28T09:03:20;21.10;99.90
13856;DHT22;6998;53.608;9.958;2023-07-28T09:05:48;21.50;99.90
13856;DHT22;6998;53.608;9.958;2023-07-28T09:08:15;21.70;99.90
13856;DHT22;6998;53.608;9.958;2023-07-28T09:10:44;21.80;99.90
13856;DHT22;6998;53.608;9.958;2023-07-28T09:13:12;21.80;99.90
13856;DHT22;6998;53.608;9.958;2023-07-28T09:15:39;21.80;99.90
13856;DHT22;6998;53.608;9.958;2023-07-28T09:18:08;22.00;99.90
13856;DHT22;6998;53.608;9.958;2023-07-28T09:20:36;22.10;99.90
13856;DHT22;6998;53.608;9.958;2023-07-28T09:23:04;22.10;99.90
13856;DHT22;6998;53.608;9.958;2023-07-28T09:25:31;21.70;99.90
13856;DHT22;6998;53.608;9.958;2023-07-28T09:27:59;21.60;99.90
13856;DHT22;6998;53.608;9.958;2023-07-28T09:30:26;21.60;99.90
13856;DHT22;6998;53.608;9.958;2023-07-28T09:32:54;21.70;99.90
13856;DHT22;6998;53.608;9.958;2023-07-28T09:35:22;21.90;99.90
13856;DHT22;6998;53.608;9.958;2023-07-28T09:37:49;21.90;99.90
13856;DHT22;6998;53.608;9.958;2023-07-28T09:40:19;22.10;99.90
13856;DHT22;6998;53.608;9.958;2023-07-28T09:42:47;22.40;99.90
13856;DHT22;6998;53.608;9.958;2023-07-28T09:45:18;22.60;99.90
13856;DHT22;6998;53.608;9.958;2023-07-28T09:47:45;22.70;99.90
13856;DHT22;6998;53.608;9.958;2023-07-28T09:50:15;22.80;99.90
13856;DHT22;6998;53.608;9.958;2023-07-28T09:52:45;22.70;99.90
13856;DHT22;6998;53.608;9.958;2023-07-28T09:55:12;22.70;99.90
13856;DHT22;6998;53.608;9.958;2023-07-28T09:57:46;22.60;99.90
13856;DHT22;6998;53.608;9.958;2023-07-28T10:00:16;22.70;99.90
13856;DHT22;6998;53.608;9.958;2023-07-28T10:02:44;22.80;99.90
13856;DHT22;6998;53.608;9.958;2023-07-28T10:05:11;23.00;99.90
13856;DHT22;6998;53.608;9.958;2023-07-28T10:07:41;23.20;99.90
13856;DHT22;6998;53.608;9.958;2023-07-28T10:10:11;23.30;99.90
13856;DHT22;6998;53.608;9.958;2023-07-28T10:12:45;23.60;99.90
13856;DHT22;6998;53.608;9.958;2023-07-28T10:15:15;23.90;99.90
13856;DHT22;6998;53.608;9.958;2023-07-28T10:17:45;24.00;99.90
13856;DHT22;6998;53.608;9.958;2023-07-28T10:20:34;24.30;99.90
13856;DHT22;6998;53.608;9.958;2023-07-28T10:23:06;24.40;99.90
13856;DHT22;6998;53.608;9.958;2023-07-28T10:25:36;24.20;99.90
13856;DHT22;6998;53.608;9.958;2023-07-28T10:28:04;24.20;99.90
13856;DHT22;6998;53.608;9.958;2023-07-28T10:30:35;24.10;99.90
13856;DHT22;6998;53.608;9.958;2023-07-28T10:33:07;24.00;99.90
13856;DHT22;6998;53.608;9.958;2023-07-28T10:35:51;23.70;99.90
13856;DHT22;6998;53.608;9.958;2023-07-28T10:38:32;23.60;99.90
13856;DHT22;6998;53.608;9.958;2023-07-28T10:41:11;23.40;99.90
13856;DHT22;6998;53.608;9.958;2023-07-28T10:43:38;23.30;99.90
13856;DHT22;6998;53.608;9.958;2023-07-28T10:46:06;23.40;99.90
13856;DHT22;6998;53.608;9.958;2023-07-28T10:48:36;23.30;99.90
13856;DHT22;6998;53.608;9.958;2023-07-28T10:51:04;23.40;99.90
13856;DHT22;6998;53.608;9.958;2023-07-28T10:53:32;23.30;99.90
13856;DHT22;6998;53.608;9.958;2023-07-28T10:56:01;23.40;99.90
13856;DHT22;6998;53.608;9.958;2023-07-28T10:58:28;23.50;99.90
13856;DHT22;6998;53.608;9.958;2023-07-28T11:00:55;23.40;99.90
13856;DHT22;6998;53.608;9.958;2023-07-28T11:03:22;23.50;99.90
13856;DHT22;6998;53.608;9.958;2023-07-28T11:05:50;23.70;99.90
13856;DHT22;6998;53.608;9.958;2023-07-28T11:08:17;23.90;99.90
13856;DHT22;6998;53.608;9.958;2023-07-28T11:10:44;24.00;99.90
13856;DHT22;6998;53.608;9.958;2023-07-28T11:13:11;24.10;99.90
13856;DHT22;6998;53.608;9.958;2023-07-28T11:15:38;24.10;99.90
13856;DHT22;6998;53.608;9.958;2023-07-28T11:18:05;24.20;99.90
13856;DHT22;6998;53.608;9.958;2023-07-28T11:20:32;24.20;99.90
13856;DHT22;6998;53.608;9.958;2023-07-28T11:23:02;24.20;99.90
13856;DHT22;6998;53.608;9.958;2023-07-28T11:25:30;24.20;99.90
13856;DHT22;6998;53.608;9.958;2023-07-28T11:27:57;24.40;99.90
13856;DHT22;6998;53.608;9.958;2023-07-28T11:30:24;24.60;99.90
13856;DHT22;6998;53.608;9.958;2023-07-28T11:32:52;24.70;99.90
13856;DHT22;6998;53.608;9.958;2023-07-28T11:35:20;24.80;99.90
13856;DHT22;6998;53.608;9.958;2023-07-28T11:37:49;25.10;99.90
13856;DHT22;6998;53.608;9.958;2023-07-28T11:40:20;24.90;99.90
13856;DHT22;6998;53.608;9.958;2023-07-28T11:42:48;24.70;99.90
13856;DHT22;6998;53.608;9.958;2023-07-28T11:45:17;24.60;99.90
13856;DHT22;6998;53.608;9.958;2023-07-28T11:47:58;24.60;99.90
13856;DHT22;6998;53.608;9.958;2023-07-28T11:50:26;24.50;99.90
13856;DHT22;6998;53.608;9.958;2023-07-28T11:52:53;24.50;99.90
13856;DHT22;6998;53.608;9.958;2023-07-28T11:55:23;24.50;99.90
13856;DHT22;6998;53.608;9.958;2023-07-28T11:57:51;24.60;99.90
13856;DHT22;6998;53.608;9.958;2023-07-28T12:00:18;24.70;99.90
13856;DHT22;6998;53.608;9.958;2023-07-28T12:03:01;24.80;99.90
13856;DHT22;6998;53.608;9.958;2023-07-28T12:05:29;24.90;99.90
13856;DHT22;6998;53.608;9.958;2023-07-28T12:07:56;24.90;99.90
13856;DHT22;6998;53.608;9.958;2023-07-28T12:10:24;25.00;99.90
13856;DHT22;6998;53.608;9.958;2023-07-28T12:12:51;25.00;99.90
13856;DHT22;6998;53.608;9.958;2023-07-28T12:15:19;25.20;99.90
13856;DHT22;6998;53.608;9.958;2023-07-28T12:18:04;25.40;99.90
13856;DHT22;6998;53.608;9.958;2023-07-28T12:20:33;25.40;99.90
13856;DHT22;6998;53.608;9.958;2023-07-28T12:23:00;25.30;99.90
13856;DHT22;6998;53.608;9.958;2023-07-28T12:25:29;25.30;99.90
13856;DHT22;6998;53.608;9.958;2023-07-28T12:27:56;25.30;99.90
13856;DHT22;6998;53.608;9.958;2023-07-28T12:30:22;25.30;99.90
13856;DHT22;6998;53.608;9.958;2023-07-28T12:32:49;25.50;99.90
13856;DHT22;6998;53.608;9.958;2023-07-28T12:35:16;25.50;99.90
13856;DHT22;6998;53.608;9.958;2023-07-28T12:37:43;25.40;99.90
13856;DHT22;6998;53.608;9.958;2023-07-28T12:40:10;25.40;99.90
13856;DHT22;6998;53.608;9.958;2023-07-28T12:42:38;25.40;99.90
13856;DHT22;6998;53.608;9.958;2023-07-28T12:45:06;25.40;99.90
13856;DHT22;6998;53.608;9.958;2023-07-28T12:47:33;25.50;99.90
13856;DHT22;6998;53.608;9.958;2023-07-28T12:50:00;25.50;99.90
13856;DHT22;6998;53.608;9.958;2023-07-28T12:52:27;25.50;99.90
13856;DHT22;6998;53.608;9.958;2023-07-28T12:54:53;25.40;99.90
13856;DHT22;6998;53.608;9.958;2023-07-28T12:57:20;25.30;99.90
13856;DHT22;6998;53.608;9.958;2023-07-28T12:59:48;25.30;99.90
13856;DHT22;6998;53.608;9.958;2023-07-28T13:02:14;25.20;99.90
13856;DHT22;6998;53.608;9.958;2023-07-28T13:04:41;25.20;99.90
13856;DHT22;6998;53.608;9.958;2023-07-28T13:07:08;25.10;99.90
13856;DHT22;6998;53.608;9.958;2023-07-28T13:09:35;24.90;99.90
13856;DHT22;6998;53.608;9.958;2023-07-28T13:12:01;24.70;99.90
13856;DHT22;6998;53.608;9.958;2023-07-28T13:14:28;24.50;99.90
13856;DHT22;6998;53.608;9.958;2023-07-28T13:16:56;24.30;99.90
13856;DHT22;6998;53.608;9.958;2023-07-28T13:19:23;24.20;99.90
13856;DHT22;6998;53.608;9.958;2023-07-28T13:21:50;24.30;99.90
13856;DHT22;6998;53.608;9.958;2023-07-28T13:24:16;24.20;99.90
13856;DHT22;6998;53.608;9.958;2023-07-28T13:26:43;24.30;99.90
13856;DHT22;6998;53.608;9.958;2023-07-28T13:29:10;24.40;99.90
13856;DHT22;6998;53.608;9.958;2023-07-28T13:31:36;24.60;99.90
13856;DHT22;6998;53.608;9.958;2023-07-28T13:34:04;24.70;99.90
13856;DHT22;6998;53.608;9.958;2023-07-28T13:36:31;24.80;99.90
13856;DHT22;6998;53.608;9.958;2023-07-28T13:38:58;24.80;99.90
13856;DHT22;6998;53.608;9.958;2023-07-28T13:41:24;24.80;99.90
13856;DHT22;6998;53.608;9.958;2023-07-28T13:43:51;24.70;99.90
13856;DHT22;6998;53.608;9.958;2023-07-28T13:46:18;24.90;99.90
13856;DHT22;6998;53.608;9.958;2023-07-28T13:48:44;25.00;99.90
13856;DHT22;6998;53.608;9.958;2023-07-28T13:51:12;25.10;99.90
13856;DHT22;6998;53.608;9.958;2023-07-28T13:53:39;25.20;99.90
13856;DHT22;6998;53.608;9.958;2023-07-28T13:56:06;25.10;99.90
13856;DHT22;6998;53.608;9.958;2023-07-28T13:58:32;25.20;99.90
13856;DHT22;6998;53.608;9.958;2023-07-28T14:00:59;25.10;99.90
13856;DHT22;6998;53.608;9.958;2023-07-28T14:03:26;24.90;99.90
13856;DHT22;6998;53.608;9.958;2023-07-28T14:05:53;24.90;99.90
13856;DHT22;6998;53.608;9.958;2023-07-28T14:08:21;24.80;99.90
13856;DHT22;6998;53.608;9.958;2023-07-28T14:10:47;24.70;99.90
13856;DHT22;6998;53.608;9.958;2023-07-28T14:13:14;24.70;99.90
13856;DHT22;6998;53.608;9.958;2023-07-28T14:15:41;24.80;99.90
13856;DHT22;6998;53.608;9.958;2023-07-28T14:18:07;24.90;99.90
13856;DHT22;6998;53.608;9.958;2023-07-28T14:20:34;25.00;99.90
13856;DHT22;6998;53.608;9.958;2023-07-28T14:23:01;25.00;99.90
13856;DHT22;6998;53.608;9.958;2023-07-28T14:25:47;24.80;99.90
13856;DHT22;6998;53.608;9.958;2023-07-28T14:28:14;24.90;99.90
13856;DHT22;6998;53.608;9.958;2023-07-28T14:30:40;24.90;99.90
13856;DHT22;6998;53.608;9.958;2023-07-28T14:33:11;25.00;99.90
13856;DHT22;6998;53.608;9.958;2023-07-28T14:35:38;25.00;99.90
13856;DHT22;6998;53.608;9.958;2023-07-28T14:38:05;25.00;99.90
13856;DHT22;6998;53.608;9.958;2023-07-28T14:40:31;25.00;99.90
13856;DHT22;6998;53.608;9.958;2023-07-28T14:42:59;25.10;99.90
13856;DHT22;6998;53.608;9.958;2023-07-28T14:45:26;25.00;99.90
13856;DHT22;6998;53.608;9.958;2023-07-28T14:47:53;25.20;99.90
13856;DHT22;6998;53.608;9.958;2023-07-28T14:50:20;25.30;99.90
13856;DHT22;6998;53.608;9.958;2023-07-28T14:52:47;25.60;99.90
13856;DHT22;6998;53.608;9.958;2023-07-28T14:55:14;25.70;99.90
13856;DHT22;6998;53.608;9.958;2023-07-28T14:57:41;25.60;99.90
13856;DHT22;6998;53.608;9.958;2023-07-28T15:00:10;25.40;99.90
13856;DHT22;6998;53.608;9.958;2023-07-28T15:02:38;25.30;99.90
13856;DHT22;6998;53.608;9.958;2023-07-28T15:05:05;25.10;99.90
13856;DHT22;6998;53.608;9.958;2023-07-28T15:07:33;25.00;99.90
13856;DHT22;6998;53.608;9.958;2023-07-28T15:10:00;24.70;99.90
13856;DHT22;6998;53.608;9.958;2023-07-28T15:12:26;24.60;99.90
13856;DHT22;6998;53.608;9.958;2023-07-28T15:14:54;24.80;99.90
13856;DHT22;6998;53.608;9.958;2023-07-28T15:17:22;24.80;99.90
13856;DHT22;6998;53.608;9.958;2023-07-28T15:19:49;24.80;99.90
13856;DHT22;6998;53.608;9.958;2023-07-28T15:22:16;25.10;99.90
13856;DHT22;6998;53.608;9.958;2023-07-28T15:24:42;25.20;99.90
13856;DHT22;6998;53.608;9.958;2023-07-28T15:27:09;25.20;99.90
13856;DHT22;6998;53.608;9.958;2023-07-28T15:29:36;25.10;99.90
13856;DHT22;6998;53.608;9.958;2023-07-28T15:32:03;25.10;99.90
13856;DHT22;6998;53.608;9.958;2023-07-28T15:34:31;25.20;99.90
13856;DHT22;6998;53.608;9.958;2023-07-28T15:37:00;25.30;99.90
13856;DHT22;6998;53.608;9.958;2023-07-28T15:39:29;25.50;99.90
13856;DHT22;6998;53.608;9.958;2023-07-28T15:41:55;25.40;99.90
13856;DHT22;6998;53.608;9.958;2023-07-28T15:44:22;25.50;99.90
13856;DHT22;6998;53.608;9.958;2023-07-28T15:46:50;25.60;99.90